This is the latest recevied weather packets stored in our database for station/object KC5CAM-13. If no packets are shown the sender has not sent any weather packets the latest 1 day(s).
| Time | Temp. | Humidity | Pressure | Rain* | Wind** | Luminosity | Snow |
|---|---|---|---|---|---|---|---|
| 1836274743 | 27.78° C | 60% | 1016.9 hPa | 0 mm | 1.34 m/s, 166° | 0 W/m² | - |
| 1836274441 | 28.33° C | 59% | 1017 hPa | 0 mm | 0.89 m/s, 150° | 0 W/m² | - |
| 1836274294 | 27.78° C | 59% | 1016.9 hPa | 0 mm | 1.34 m/s, 116° | 0 W/m² | - |
| 1836274140 | 27.78° C | 59% | 1017 hPa | 0 mm | 0.89 m/s, 142° | 0 W/m² | - |
| 1778044334 | 15° C | 79% | 1011.2 hPa | 0 mm | 0.45 m/s, 308° | 0 W/m² | - |
| 1778044033 | 15° C | 79% | 1011.3 hPa | 0 mm | 0.89 m/s, 338° | 0 W/m² | - |
| 1778043729 | 15.56° C | 79% | 1011.2 hPa | 0 mm | 0.45 m/s, 0° | 0 W/m² | - |
| 1778043426 | 15.56° C | 80% | 1011.3 hPa | 0 mm | 0 m/s | 0 W/m² | - |
| 1778043122 | 15.56° C | 80% | 1011.2 hPa | 0 mm | 0.89 m/s, 250° | 0 W/m² | - |
| 1778042820 | 15.56° C | 81% | 1011.2 hPa | 0 mm | 0 m/s | 0 W/m² | - |
| 1778042517 | 15.56° C | 81% | 1011.2 hPa | 0 mm | 0.89 m/s, 344° | 0 W/m² | - |
| 1778042214 | 15.56° C | 81% | 1011.1 hPa | 0 mm | 0.89 m/s, 339° | 0 W/m² | - |
| 1778041912 | 15.56° C | 81% | 1011.3 hPa | 0 mm | 0.45 m/s, 335° | 0 W/m² | - |
| 1778041611 | 15.56° C | 81% | 1011.2 hPa | 0 mm | 0.45 m/s, 349° | 0 W/m² | - |
| 1778041309 | 15.56° C | 81% | 1011 hPa | 0 mm | 0.89 m/s, 298° | 0 W/m² | - |
| 1778041007 | 16.11° C | 80% | 1010.9 hPa | 0 mm | 0.45 m/s, 327° | 0 W/m² | - |
| 1778040703 | 16.11° C | 81% | 1011.1 hPa | 0 mm | 1.34 m/s, 330° | 0 W/m² | - |
| 1778040401 | 16.11° C | 80% | 1011 hPa | 0 mm | 0.45 m/s, 293° | 0 W/m² | - |
| 1778040098 | 16.11° C | 80% | 1011 hPa | 0 mm | 0.45 m/s, 317° | 0 W/m² | - |
| 1778039795 | 16.11° C | 80% | 1010.7 hPa | 0 mm | 0.45 m/s, 323° | 0 W/m² | - |
| 1778039491 | 16.67° C | 80% | 1010.6 hPa | 0 mm | 2.24 m/s, 336° | 0 W/m² | - |
| 1778039189 | 16.67° C | 80% | 1010.4 hPa | 0 mm | 0.45 m/s, 358° | 0 W/m² | - |
| 1778038885 | 16.67° C | 80% | 1010.5 hPa | 0 mm | 1.34 m/s, 330° | 0 W/m² | - |
| 1778038583 | 16.67° C | 80% | 1010.5 hPa | 0 mm | 1.34 m/s, 14° | 0 W/m² | - |
| 1778038280 | 16.67° C | 80% | 1010.2 hPa | 0 mm | 0.89 m/s, 353° | 0 W/m² | - |
* Rain latest hour (hover to see other rain measurements)
** Current wind speed in m/s (hover to see current wind gust speed)